sensor_id;sensor_type;location;lat;lon;timestamp;temperature;humidity
13052;DHT22;6592;47.484;9.726;2023-01-15T00:01:05;9.70;99.90
13052;DHT22;6592;47.484;9.726;2023-01-15T00:03:34;10.00;99.90
13052;DHT22;6592;47.484;9.726;2023-01-15T00:06:03;10.20;99.90
13052;DHT22;6592;47.484;9.726;2023-01-15T00:08:31;10.30;99.90
13052;DHT22;6592;47.484;9.726;2023-01-15T00:11:02;10.40;99.90
13052;DHT22;6592;47.484;9.726;2023-01-15T00:13:30;10.50;99.90
13052;DHT22;6592;47.484;9.726;2023-01-15T00:16:02;10.60;99.90
13052;DHT22;6592;47.484;9.726;2023-01-15T00:18:31;10.70;99.90
13052;DHT22;6592;47.484;9.726;2023-01-15T00:21:02;10.80;99.90
13052;DHT22;6592;47.484;9.726;2023-01-15T00:23:31;10.80;99.90
13052;DHT22;6592;47.484;9.726;2023-01-15T00:26:20;10.90;99.90
13052;DHT22;6592;47.484;9.726;2023-01-15T00:29:06;10.90;99.90
13052;DHT22;6592;47.484;9.726;2023-01-15T00:31:34;10.90;99.90
13052;DHT22;6592;47.484;9.726;2023-01-15T00:34:03;10.90;99.90
13052;DHT22;6592;47.484;9.726;2023-01-15T00:36:32;10.90;99.90
13052;DHT22;6592;47.484;9.726;2023-01-15T00:39:01;10.90;99.90
13052;DHT22;6592;47.484;9.726;2023-01-15T00:41:29;10.90;99.90
13052;DHT22;6592;47.484;9.726;2023-01-15T00:43:57;11.00;99.90
13052;DHT22;6592;47.484;9.726;2023-01-15T00:46:25;11.10;99.90
13052;DHT22;6592;47.484;9.726;2023-01-15T00:48:54;11.10;99.90
13052;DHT22;6592;47.484;9.726;2023-01-15T00:51:22;11.30;99.90
13052;DHT22;6592;47.484;9.726;2023-01-15T00:53:52;11.40;99.90
13052;DHT22;6592;47.484;9.726;2023-01-15T00:56:20;11.50;99.90
13052;DHT22;6592;47.484;9.726;2023-01-15T00:58:48;11.50;99.90
13052;DHT22;6592;47.484;9.726;2023-01-15T01:01:16;11.50;99.90
13052;DHT22;6592;47.484;9.726;2023-01-15T01:03:45;11.60;99.90
13052;DHT22;6592;47.484;9.726;2023-01-15T01:06:15;11.60;99.90
13052;DHT22;6592;47.484;9.726;2023-01-15T01:08:43;11.60;99.90
13052;DHT22;6592;47.484;9.726;2023-01-15T01:11:15;11.60;99.90
13052;DHT22;6592;47.484;9.726;2023-01-15T01:13:44;11.70;99.90
13052;DHT22;6592;47.484;9.726;2023-01-15T01:16:25;11.80;99.90
13052;DHT22;6592;47.484;9.726;2023-01-15T01:18:54;11.80;99.90
13052;DHT22;6592;47.484;9.726;2023-01-15T01:21:22;11.80;99.90
13052;DHT22;6592;47.484;9.726;2023-01-15T01:23:50;11.70;99.90
13052;DHT22;6592;47.484;9.726;2023-01-15T01:26:20;11.70;99.90
13052;DHT22;6592;47.484;9.726;2023-01-15T01:28:49;11.60;99.90
13052;DHT22;6592;47.484;9.726;2023-01-15T01:31:18;11.60;99.90
13052;DHT22;6592;47.484;9.726;2023-01-15T01:33:47;11.60;99.90
13052;DHT22;6592;47.484;9.726;2023-01-15T01:36:16;11.60;99.90
13052;DHT22;6592;47.484;9.726;2023-01-15T01:38:46;11.40;99.90
13052;DHT22;6592;47.484;9.726;2023-01-15T01:41:16;11.50;99.90
13052;DHT22;6592;47.484;9.726;2023-01-15T01:43:54;11.40;99.90
13052;DHT22;6592;47.484;9.726;2023-01-15T01:46:23;11.40;99.90
13052;DHT22;6592;47.484;9.726;2023-01-15T01:48:54;11.30;99.90
13052;DHT22;6592;47.484;9.726;2023-01-15T01:51:25;11.30;99.90
13052;DHT22;6592;47.484;9.726;2023-01-15T01:53:54;11.20;99.90
13052;DHT22;6592;47.484;9.726;2023-01-15T01:56:23;11.10;99.90
13052;DHT22;6592;47.484;9.726;2023-01-15T01:58:54;11.10;99.90
13052;DHT22;6592;47.484;9.726;2023-01-15T02:01:24;11.00;99.90
13052;DHT22;6592;47.484;9.726;2023-01-15T02:03:53;10.90;99.90
13052;DHT22;6592;47.484;9.726;2023-01-15T02:06:22;10.80;99.90
13052;DHT22;6592;47.484;9.726;2023-01-15T02:08:51;10.70;99.90
13052;DHT22;6592;47.484;9.726;2023-01-15T02:11:21;10.70;99.90
13052;DHT22;6592;47.484;9.726;2023-01-15T02:13:56;10.60;99.90
13052;DHT22;6592;47.484;9.726;2023-01-15T02:16:32;10.50;99.90
13052;DHT22;6592;47.484;9.726;2023-01-15T02:19:13;10.50;99.90
13052;DHT22;6592;47.484;9.726;2023-01-15T02:21:49;10.50;99.90
13052;DHT22;6592;47.484;9.726;2023-01-15T02:24:25;10.40;99.90
13052;DHT22;6592;47.484;9.726;2023-01-15T02:27:14;10.40;99.90
13052;DHT22;6592;47.484;9.726;2023-01-15T02:29:53;10.40;99.90
13052;DHT22;6592;47.484;9.726;2023-01-15T02:32:30;10.30;99.90
13052;DHT22;6592;47.484;9.726;2023-01-15T02:35:04;10.30;99.90
13052;DHT22;6592;47.484;9.726;2023-01-15T02:37:37;10.30;99.90
13052;DHT22;6592;47.484;9.726;2023-01-15T02:40:07;10.30;99.90
13052;DHT22;6592;47.484;9.726;2023-01-15T02:42:40;10.30;99.90
13052;DHT22;6592;47.484;9.726;2023-01-15T02:45:11;10.30;99.90
13052;DHT22;6592;47.484;9.726;2023-01-15T02:47:41;10.30;99.90
13052;DHT22;6592;47.484;9.726;2023-01-15T02:50:14;10.30;99.90
13052;DHT22;6592;47.484;9.726;2023-01-15T02:52:45;10.20;99.90
13052;DHT22;6592;47.484;9.726;2023-01-15T02:55:18;10.20;99.90
13052;DHT22;6592;47.484;9.726;2023-01-15T02:57:51;10.20;99.90
13052;DHT22;6592;47.484;9.726;2023-01-15T03:00:23;10.20;99.90
13052;DHT22;6592;47.484;9.726;2023-01-15T03:02:57;10.20;99.90
13052;DHT22;6592;47.484;9.726;2023-01-15T03:05:30;10.20;99.90
13052;DHT22;6592;47.484;9.726;2023-01-15T03:08:02;10.30;99.90
13052;DHT22;6592;47.484;9.726;2023-01-15T03:10:39;10.30;99.90
13052;DHT22;6592;47.484;9.726;2023-01-15T03:13:15;10.30;99.90
13052;DHT22;6592;47.484;9.726;2023-01-15T03:15:50;10.30;99.90
13052;DHT22;6592;47.484;9.726;2023-01-15T03:18:36;10.20;99.90
13052;DHT22;6592;47.484;9.726;2023-01-15T03:21:10;10.20;99.90
13052;DHT22;6592;47.484;9.726;2023-01-15T03:23:44;10.20;99.90
13052;DHT22;6592;47.484;9.726;2023-01-15T03:26:13;10.10;99.90
13052;DHT22;6592;47.484;9.726;2023-01-15T03:28:44;10.10;99.90
13052;DHT22;6592;47.484;9.726;2023-01-15T03:31:13;10.10;99.90
13052;DHT22;6592;47.484;9.726;2023-01-15T03:33:41;10.10;99.90
13052;DHT22;6592;47.484;9.726;2023-01-15T03:36:10;10.10;99.90
13052;DHT22;6592;47.484;9.726;2023-01-15T03:38:39;10.10;99.90
13052;DHT22;6592;47.484;9.726;2023-01-15T03:41:14;10.10;99.90
13052;DHT22;6592;47.484;9.726;2023-01-15T03:43:54;10.10;99.90
13052;DHT22;6592;47.484;9.726;2023-01-15T03:46:39;10.20;99.90
13052;DHT22;6592;47.484;9.726;2023-01-15T03:49:14;10.20;99.90
13052;DHT22;6592;47.484;9.726;2023-01-15T03:51:53;10.10;99.90
13052;DHT22;6592;47.484;9.726;2023-01-15T03:54:39;10.10;99.90
13052;DHT22;6592;47.484;9.726;2023-01-15T03:57:16;10.10;99.90
13052;DHT22;6592;47.484;9.726;2023-01-15T03:59:50;10.10;99.90
13052;DHT22;6592;47.484;9.726;2023-01-15T04:02:20;10.10;99.90
13052;DHT22;6592;47.484;9.726;2023-01-15T04:04:51;10.00;99.90
13052;DHT22;6592;47.484;9.726;2023-01-15T04:07:19;10.00;99.90
13052;DHT22;6592;47.484;9.726;2023-01-15T04:09:48;9.90;99.90
13052;DHT22;6592;47.484;9.726;2023-01-15T04:12:17;9.90;99.90
13052;DHT22;6592;47.484;9.726;2023-01-15T04:14:46;9.90;99.90
13052;DHT22;6592;47.484;9.726;2023-01-15T04:17:15;10.00;99.90
13052;DHT22;6592;47.484;9.726;2023-01-15T04:19:43;10.00;99.90
13052;DHT22;6592;47.484;9.726;2023-01-15T04:22:11;9.90;99.90
13052;DHT22;6592;47.484;9.726;2023-01-15T04:24:39;9.90;99.90
13052;DHT22;6592;47.484;9.726;2023-01-15T04:27:08;9.90;99.90
13052;DHT22;6592;47.484;9.726;2023-01-15T04:29:36;9.90;99.90
13052;DHT22;6592;47.484;9.726;2023-01-15T04:32:05;9.90;99.90
13052;DHT22;6592;47.484;9.726;2023-01-15T04:34:34;10.00;99.90
13052;DHT22;6592;47.484;9.726;2023-01-15T04:37:02;10.00;99.90
13052;DHT22;6592;47.484;9.726;2023-01-15T04:39:30;10.00;99.90
13052;DHT22;6592;47.484;9.726;2023-01-15T04:41:59;9.90;99.90
13052;DHT22;6592;47.484;9.726;2023-01-15T04:44:44;9.90;99.90
13052;DHT22;6592;47.484;9.726;2023-01-15T04:47:14;9.80;99.90
13052;DHT22;6592;47.484;9.726;2023-01-15T04:49:42;9.80;99.90
13052;DHT22;6592;47.484;9.726;2023-01-15T04:52:10;9.80;99.90
13052;DHT22;6592;47.484;9.726;2023-01-15T04:54:39;9.80;99.90
13052;DHT22;6592;47.484;9.726;2023-01-15T04:57:07;9.80;99.90
13052;DHT22;6592;47.484;9.726;2023-01-15T04:59:35;9.80;99.90
13052;DHT22;6592;47.484;9.726;2023-01-15T05:02:03;9.80;99.90
13052;DHT22;6592;47.484;9.726;2023-01-15T05:04:34;9.80;99.90
13052;DHT22;6592;47.484;9.726;2023-01-15T05:07:03;9.80;99.90
13052;DHT22;6592;47.484;9.726;2023-01-15T05:09:32;9.70;99.90
13052;DHT22;6592;47.484;9.726;2023-01-15T05:12:00;9.70;99.90
13052;DHT22;6592;47.484;9.726;2023-01-15T05:14:29;9.60;99.90
13052;DHT22;6592;47.484;9.726;2023-01-15T05:16:57;9.50;99.90
13052;DHT22;6592;47.484;9.726;2023-01-15T05:19:25;9.50;99.90
13052;DHT22;6592;47.484;9.726;2023-01-15T05:21:55;9.50;99.90
13052;DHT22;6592;47.484;9.726;2023-01-15T05:24:23;9.40;99.90
13052;DHT22;6592;47.484;9.726;2023-01-15T05:26:52;9.40;99.90
13052;DHT22;6592;47.484;9.726;2023-01-15T05:29:21;9.40;99.90
13052;DHT22;6592;47.484;9.726;2023-01-15T05:31:50;9.40;99.90
13052;DHT22;6592;47.484;9.726;2023-01-15T05:34:18;9.40;99.90
13052;DHT22;6592;47.484;9.726;2023-01-15T05:36:46;9.40;99.90
13052;DHT22;6592;47.484;9.726;2023-01-15T05:39:16;9.40;99.90
13052;DHT22;6592;47.484;9.726;2023-01-15T05:41:44;9.40;99.90
13052;DHT22;6592;47.484;9.726;2023-01-15T05:44:21;9.40;99.90
13052;DHT22;6592;47.484;9.726;2023-01-15T05:46:51;9.40;99.90
13052;DHT22;6592;47.484;9.726;2023-01-15T05:49:22;9.30;99.90
13052;DHT22;6592;47.484;9.726;2023-01-15T05:51:52;9.30;99.90
13052;DHT22;6592;47.484;9.726;2023-01-15T05:54:25;9.20;99.90
13052;DHT22;6592;47.484;9.726;2023-01-15T05:56:54;9.10;99.90
13052;DHT22;6592;47.484;9.726;2023-01-15T05:59:24;9.00;99.90
13052;DHT22;6592;47.484;9.726;2023-01-15T06:01:54;8.90;99.90
13052;DHT22;6592;47.484;9.726;2023-01-15T06:04:23;8.80;99.90
13052;DHT22;6592;47.484;9.726;2023-01-15T06:06:53;8.80;99.90
13052;DHT22;6592;47.484;9.726;2023-01-15T06:09:23;8.70;99.90
13052;DHT22;6592;47.484;9.726;2023-01-15T06:11:52;8.70;99.90
13052;DHT22;6592;47.484;9.726;2023-01-15T06:14:21;8.70;99.90
13052;DHT22;6592;47.484;9.726;2023-01-15T06:16:49;8.70;99.90
13052;DHT22;6592;47.484;9.726;2023-01-15T06:19:18;8.70;99.90
13052;DHT22;6592;47.484;9.726;2023-01-15T06:21:46;8.60;99.90
13052;DHT22;6592;47.484;9.726;2023-01-15T06:24:14;8.60;99.90
13052;DHT22;6592;47.484;9.726;2023-01-15T06:26:45;8.60;99.90
13052;DHT22;6592;47.484;9.726;2023-01-15T06:29:13;8.60;99.90
13052;DHT22;6592;47.484;9.726;2023-01-15T06:31:45;8.70;99.90
13052;DHT22;6592;47.484;9.726;2023-01-15T06:34:14;8.80;99.90
13052;DHT22;6592;47.484;9.726;2023-01-15T06:36:42;8.90;99.90
13052;DHT22;6592;47.484;9.726;2023-01-15T06:39:10;9.00;99.90
13052;DHT22;6592;47.484;9.726;2023-01-15T06:41:38;9.00;99.90
13052;DHT22;6592;47.484;9.726;2023-01-15T06:44:25;9.10;99.90
13052;DHT22;6592;47.484;9.726;2023-01-15T06:47:13;9.10;99.90
13052;DHT22;6592;47.484;9.726;2023-01-15T06:49:49;9.10;99.90
13052;DHT22;6592;47.484;9.726;2023-01-15T06:52:18;9.10;99.90
13052;DHT22;6592;47.484;9.726;2023-01-15T06:54:46;9.10;99.90
13052;DHT22;6592;47.484;9.726;2023-01-15T06:57:15;9.10;99.90
13052;DHT22;6592;47.484;9.726;2023-01-15T06:59:46;9.10;99.90
13052;DHT22;6592;47.484;9.726;2023-01-15T07:02:14;9.10;99.90
13052;DHT22;6592;47.484;9.726;2023-01-15T07:04:44;9.20;99.90
13052;DHT22;6592;47.484;9.726;2023-01-15T07:07:12;9.20;99.90
13052;DHT22;6592;47.484;9.726;2023-01-15T07:09:40;9.20;99.90
13052;DHT22;6592;47.484;9.726;2023-01-15T07:12:09;9.30;99.90
13052;DHT22;6592;47.484;9.726;2023-01-15T07:14:37;9.40;99.90
13052;DHT22;6592;47.484;9.726;2023-01-15T07:17:07;9.40;99.90
13052;DHT22;6592;47.484;9.726;2023-01-15T07:19:35;9.40;99.90
13052;DHT22;6592;47.484;9.726;2023-01-15T07:22:03;9.40;99.90
13052;DHT22;6592;47.484;9.726;2023-01-15T07:24:32;9.40;99.90
13052;DHT22;6592;47.484;9.726;2023-01-15T07:27:00;9.40;99.90
13052;DHT22;6592;47.484;9.726;2023-01-15T07:29:29;9.40;99.90
13052;DHT22;6592;47.484;9.726;2023-01-15T07:31:57;9.50;99.90
13052;DHT22;6592;47.484;9.726;2023-01-15T07:34:27;9.50;99.90
13052;DHT22;6592;47.484;9.726;2023-01-15T07:36:55;9.50;99.90
13052;DHT22;6592;47.484;9.726;2023-01-15T07:39:23;9.50;99.90
13052;DHT22;6592;47.484;9.726;2023-01-15T07:41:52;9.50;99.90
13052;DHT22;6592;47.484;9.726;2023-01-15T07:44:37;9.60;99.90
13052;DHT22;6592;47.484;9.726;2023-01-15T07:47:25;9.60;99.90
13052;DHT22;6592;47.484;9.726;2023-01-15T07:50:14;9.60;99.90
13052;DHT22;6592;47.484;9.726;2023-01-15T07:52:43;9.60;99.90
13052;DHT22;6592;47.484;9.726;2023-01-15T07:55:12;9.60;99.90
13052;DHT22;6592;47.484;9.726;2023-01-15T07:57:40;9.60;99.90
13052;DHT22;6592;47.484;9.726;2023-01-15T08:00:11;9.60;99.90
13052;DHT22;6592;47.484;9.726;2023-01-15T08:02:40;9.50;99.90
13052;DHT22;6592;47.484;9.726;2023-01-15T08:05:11;9.50;99.90
13052;DHT22;6592;47.484;9.726;2023-01-15T08:07:40;9.50;99.90
13052;DHT22;6592;47.484;9.726;2023-01-15T08:10:11;9.50;99.90
13052;DHT22;6592;47.484;9.726;2023-01-15T08:12:40;9.40;99.90
13052;DHT22;6592;47.484;9.726;2023-01-15T08:15:26;9.40;99.90
13052;DHT22;6592;47.484;9.726;2023-01-15T08:17:56;9.40;99.90
13052;DHT22;6592;47.484;9.726;2023-01-15T08:20:26;9.40;99.90
13052;DHT22;6592;47.484;9.726;2023-01-15T08:22:54;9.30;99.90
13052;DHT22;6592;47.484;9.726;2023-01-15T08:25:24;9.30;99.90
13052;DHT22;6592;47.484;9.726;2023-01-15T08:27:53;9.30;99.90
13052;DHT22;6592;47.484;9.726;2023-01-15T08:30:23;9.40;99.90
13052;DHT22;6592;47.484;9.726;2023-01-15T08:32:57;9.40;99.90
13052;DHT22;6592;47.484;9.726;2023-01-15T08:35:27;9.40;99.90
13052;DHT22;6592;47.484;9.726;2023-01-15T08:37:55;9.50;99.90
13052;DHT22;6592;47.484;9.726;2023-01-15T08:40:23;9.40;99.90
13052;DHT22;6592;47.484;9.726;2023-01-15T08:42:53;9.50;99.90
13052;DHT22;6592;47.484;9.726;2023-01-15T08:45:22;9.60;99.90
13052;DHT22;6592;47.484;9.726;2023-01-15T08:47:54;9.70;99.90
13052;DHT22;6592;47.484;9.726;2023-01-15T08:50:22;9.80;99.90
13052;DHT22;6592;47.484;9.726;2023-01-15T08:52:52;9.80;99.90
13052;DHT22;6592;47.484;9.726;2023-01-15T08:55:20;10.00;99.90
13052;DHT22;6592;47.484;9.726;2023-01-15T08:57:49;10.10;99.90
13052;DHT22;6592;47.484;9.726;2023-01-15T09:00:18;10.20;99.90
13052;DHT22;6592;47.484;9.726;2023-01-15T09:02:47;10.30;99.90
13052;DHT22;6592;47.484;9.726;2023-01-15T09:05:16;10.30;99.90
13052;DHT22;6592;47.484;9.726;2023-01-15T09:07:45;10.50;99.90
13052;DHT22;6592;47.484;9.726;2023-01-15T09:10:15;10.70;99.90
13052;DHT22;6592;47.484;9.726;2023-01-15T09:12:44;10.90;99.90
13052;DHT22;6592;47.484;9.726;2023-01-15T09:15:13;11.00;99.90
13052;DHT22;6592;47.484;9.726;2023-01-15T09:17:41;11.00;99.90
13052;DHT22;6592;47.484;9.726;2023-01-15T09:20:11;11.00;99.90
13052;DHT22;6592;47.484;9.726;2023-01-15T09:22:40;11.00;99.90
13052;DHT22;6592;47.484;9.726;2023-01-15T09:25:09;10.90;99.90
13052;DHT22;6592;47.484;9.726;2023-01-15T09:27:38;10.80;99.90
13052;DHT22;6592;47.484;9.726;2023-01-15T09:30:08;10.70;99.90
13052;DHT22;6592;47.484;9.726;2023-01-15T09:32:37;10.70;99.90
13052;DHT22;6592;47.484;9.726;2023-01-15T09:35:07;10.60;99.90
13052;DHT22;6592;47.484;9.726;2023-01-15T09:37:35;10.60;99.90
13052;DHT22;6592;47.484;9.726;2023-01-15T09:40:05;10.60;99.90
13052;DHT22;6592;47.484;9.726;2023-01-15T09:42:47;10.60;99.90
13052;DHT22;6592;47.484;9.726;2023-01-15T09:45:22;10.50;99.90
13052;DHT22;6592;47.484;9.726;2023-01-15T09:48:08;10.40;99.90
13052;DHT22;6592;47.484;9.726;2023-01-15T09:50:51;10.30;99.90
13052;DHT22;6592;47.484;9.726;2023-01-15T09:53:32;10.10;99.90
13052;DHT22;6592;47.484;9.726;2023-01-15T09:56:05;10.00;99.90
13052;DHT22;6592;47.484;9.726;2023-01-15T09:58:40;9.80;99.90
13052;DHT22;6592;47.484;9.726;2023-01-15T10:01:15;9.70;99.90
13052;DHT22;6592;47.484;9.726;2023-01-15T10:03:46;9.70;99.90
13052;DHT22;6592;47.484;9.726;2023-01-15T10:06:20;9.60;99.90
13052;DHT22;6592;47.484;9.726;2023-01-15T10:08:56;9.60;99.90
13052;DHT22;6592;47.484;9.726;2023-01-15T10:11:30;9.50;99.90
13052;DHT22;6592;47.484;9.726;2023-01-15T10:14:39;9.50;99.90
13052;DHT22;6592;47.484;9.726;2023-01-15T10:17:22;9.40;99.90
13052;DHT22;6592;47.484;9.726;2023-01-15T10:19:52;9.30;99.90
13052;DHT22;6592;47.484;9.726;2023-01-15T10:22:34;9.20;99.90
13052;DHT22;6592;47.484;9.726;2023-01-15T10:25:13;9.10;99.90
13052;DHT22;6592;47.484;9.726;2023-01-15T10:27:45;9.00;99.90
13052;DHT22;6592;47.484;9.726;2023-01-15T10:30:20;8.90;99.90
13052;DHT22;6592;47.484;9.726;2023-01-15T10:32:54;8.80;99.90
13052;DHT22;6592;47.484;9.726;2023-01-15T10:35:37;8.70;99.90
13052;DHT22;6592;47.484;9.726;2023-01-15T10:38:13;8.60;99.90
13052;DHT22;6592;47.484;9.726;2023-01-15T10:41:05;8.50;99.90
13052;DHT22;6592;47.484;9.726;2023-01-15T10:43:46;8.30;99.90
13052;DHT22;6592;47.484;9.726;2023-01-15T10:46:18;8.20;99.90
13052;DHT22;6592;47.484;9.726;2023-01-15T10:48:50;8.20;99.90
13052;DHT22;6592;47.484;9.726;2023-01-15T10:51:20;8.10;99.90
13052;DHT22;6592;47.484;9.726;2023-01-15T10:53:52;8.00;99.90
13052;DHT22;6592;47.484;9.726;2023-01-15T10:56:30;7.90;99.90
13052;DHT22;6592;47.484;9.726;2023-01-15T10:59:04;7.80;99.90
13052;DHT22;6592;47.484;9.726;2023-01-15T11:01:39;7.70;99.90
13052;DHT22;6592;47.484;9.726;2023-01-15T11:04:09;7.60;99.90
13052;DHT22;6592;47.484;9.726;2023-01-15T11:06:39;7.50;99.90
13052;DHT22;6592;47.484;9.726;2023-01-15T11:09:18;7.40;99.90
13052;DHT22;6592;47.484;9.726;2023-01-15T11:11:49;7.40;99.90
13052;DHT22;6592;47.484;9.726;2023-01-15T11:14:38;7.40;99.90
13052;DHT22;6592;47.484;9.726;2023-01-15T11:17:29;7.30;99.90
13052;DHT22;6592;47.484;9.726;2023-01-15T11:20:22;7.30;99.90
13052;DHT22;6592;47.484;9.726;2023-01-15T11:22:53;7.30;99.90
13052;DHT22;6592;47.484;9.726;2023-01-15T11:25:29;7.20;99.90
13052;DHT22;6592;47.484;9.726;2023-01-15T11:27:59;7.20;99.90
13052;DHT22;6592;47.484;9.726;2023-01-15T11:30:32;7.20;99.90
13052;DHT22;6592;47.484;9.726;2023-01-15T11:33:02;7.20;99.90
13052;DHT22;6592;47.484;9.726;2023-01-15T11:35:32;7.10;99.90
13052;DHT22;6592;47.484;9.726;2023-01-15T11:38:05;7.10;99.90
13052;DHT22;6592;47.484;9.726;2023-01-15T11:40:34;7.00;99.90
13052;DHT22;6592;47.484;9.726;2023-01-15T11:43:02;7.00;99.90
13052;DHT22;6592;47.484;9.726;2023-01-15T11:45:50;7.00;99.90
13052;DHT22;6592;47.484;9.726;2023-01-15T11:48:45;6.90;99.90
13052;DHT22;6592;47.484;9.726;2023-01-15T11:51:35;6.90;99.90
13052;DHT22;6592;47.484;9.726;2023-01-15T11:54:10;6.80;99.90
13052;DHT22;6592;47.484;9.726;2023-01-15T11:56:41;6.80;99.90
13052;DHT22;6592;47.484;9.726;2023-01-15T11:59:12;6.70;99.90
13052;DHT22;6592;47.484;9.726;2023-01-15T12:01:48;6.80;99.90
13052;DHT22;6592;47.484;9.726;2023-01-15T12:04:30;6.70;99.90
13052;DHT22;6592;47.484;9.726;2023-01-15T12:07:00;6.60;99.90
13052;DHT22;6592;47.484;9.726;2023-01-15T12:10:00;6.70;99.90
13052;DHT22;6592;47.484;9.726;2023-01-15T12:12:42;6.70;99.90
13052;DHT22;6592;47.484;9.726;2023-01-15T12:15:30;6.70;99.90
13052;DHT22;6592;47.484;9.726;2023-01-15T12:18:32;6.60;99.90
13052;DHT22;6592;47.484;9.726;2023-01-15T12:21:19;6.60;99.90
13052;DHT22;6592;47.484;9.726;2023-01-15T12:24:22;6.60;99.90
13052;DHT22;6592;47.484;9.726;2023-01-15T12:27:07;6.50;99.90
13052;DHT22;6592;47.484;9.726;2023-01-15T12:29:44;6.50;99.90
13052;DHT22;6592;47.484;9.726;2023-01-15T12:32:17;6.50;99.90
13052;DHT22;6592;47.484;9.726;2023-01-15T12:34:51;6.40;99.90
13052;DHT22;6592;47.484;9.726;2023-01-15T12:37:25;6.40;99.90
13052;DHT22;6592;47.484;9.726;2023-01-15T12:39:56;6.50;99.90
13052;DHT22;6592;47.484;9.726;2023-01-15T12:42:27;6.40;99.90
13052;DHT22;6592;47.484;9.726;2023-01-15T12:45:19;6.40;99.90
13052;DHT22;6592;47.484;9.726;2023-01-15T12:47:51;6.30;99.90
13052;DHT22;6592;47.484;9.726;2023-01-15T12:50:30;6.20;99.90
13052;DHT22;6592;47.484;9.726;2023-01-15T12:53:07;6.10;99.90
13052;DHT22;6592;47.484;9.726;2023-01-15T12:55:40;6.10;99.90
13052;DHT22;6592;47.484;9.726;2023-01-15T12:58:19;6.00;99.90
13052;DHT22;6592;47.484;9.726;2023-01-15T13:00:49;6.00;99.90
13052;DHT22;6592;47.484;9.726;2023-01-15T13:03:23;6.00;99.90
13052;DHT22;6592;47.484;9.726;2023-01-15T13:05:56;5.90;99.90
13052;DHT22;6592;47.484;9.726;2023-01-15T13:08:30;5.80;99.90
13052;DHT22;6592;47.484;9.726;2023-01-15T13:11:00;5.80;99.90
13052;DHT22;6592;47.484;9.726;2023-01-15T13:13:31;5.80;99.90
13052;DHT22;6592;47.484;9.726;2023-01-15T13:16:07;5.80;99.90
13052;DHT22;6592;47.484;9.726;2023-01-15T13:18:49;5.70;99.90
13052;DHT22;6592;47.484;9.726;2023-01-15T13:21:22;5.70;99.90
13052;DHT22;6592;47.484;9.726;2023-01-15T13:24:05;5.70;99.90
13052;DHT22;6592;47.484;9.726;2023-01-15T13:26:51;5.60;99.90
13052;DHT22;6592;47.484;9.726;2023-01-15T13:29:25;5.60;99.90
13052;DHT22;6592;47.484;9.726;2023-01-15T13:32:01;5.60;99.90
13052;DHT22;6592;47.484;9.726;2023-01-15T13:34:37;5.60;99.90
13052;DHT22;6592;47.484;9.726;2023-01-15T13:37:18;5.60;99.90
13052;DHT22;6592;47.484;9.726;2023-01-15T13:39:52;5.60;99.90
13052;DHT22;6592;47.484;9.726;2023-01-15T13:42:23;5.60;99.90
13052;DHT22;6592;47.484;9.726;2023-01-15T13:45:04;5.60;99.90
13052;DHT22;6592;47.484;9.726;2023-01-15T13:47:36;5.50;99.90
13052;DHT22;6592;47.484;9.726;2023-01-15T13:50:12;5.50;99.90
13052;DHT22;6592;47.484;9.726;2023-01-15T13:52:41;5.50;99.90
13052;DHT22;6592;47.484;9.726;2023-01-15T13:55:30;5.50;99.90
13052;DHT22;6592;47.484;9.726;2023-01-15T13:57:59;5.50;99.90
13052;DHT22;6592;47.484;9.726;2023-01-15T14:00:30;5.50;99.90
13052;DHT22;6592;47.484;9.726;2023-01-15T14:03:01;5.50;99.90
13052;DHT22;6592;47.484;9.726;2023-01-15T14:05:31;5.50;99.90
13052;DHT22;6592;47.484;9.726;2023-01-15T14:08:00;5.50;99.90
13052;DHT22;6592;47.484;9.726;2023-01-15T14:10:36;5.40;99.90
13052;DHT22;6592;47.484;9.726;2023-01-15T14:13:17;5.40;99.90
13052;DHT22;6592;47.484;9.726;2023-01-15T14:15:53;5.40;99.90
13052;DHT22;6592;47.484;9.726;2023-01-15T14:18:48;5.40;99.90
13052;DHT22;6592;47.484;9.726;2023-01-15T14:21:26;5.40;99.90
13052;DHT22;6592;47.484;9.726;2023-01-15T14:24:18;5.40;99.90
13052;DHT22;6592;47.484;9.726;2023-01-15T14:26:58;5.50;99.90
13052;DHT22;6592;47.484;9.726;2023-01-15T14:32:42;5.40;99.90
13052;DHT22;6592;47.484;9.726;2023-01-15T14:35:19;5.40;99.90
13052;DHT22;6592;47.484;9.726;2023-01-15T14:37:50;5.40;99.90
13052;DHT22;6592;47.484;9.726;2023-01-15T14:40:22;5.40;99.90
13052;DHT22;6592;47.484;9.726;2023-01-15T14:42:54;5.50;99.90
13052;DHT22;6592;47.484;9.726;2023-01-15T14:45:32;5.50;99.90
13052;DHT22;6592;47.484;9.726;2023-01-15T14:48:04;5.50;99.90
13052;DHT22;6592;47.484;9.726;2023-01-15T14:50:35;5.60;99.90
13052;DHT22;6592;47.484;9.726;2023-01-15T14:53:29;5.60;99.90
13052;DHT22;6592;47.484;9.726;2023-01-15T14:56:03;5.60;99.90
13052;DHT22;6592;47.484;9.726;2023-01-15T14:58:43;5.60;99.90
13052;DHT22;6592;47.484;9.726;2023-01-15T15:01:27;5.70;99.90
13052;DHT22;6592;47.484;9.726;2023-01-15T15:04:00;5.70;99.90
13052;DHT22;6592;47.484;9.726;2023-01-15T15:06:39;5.70;99.90
13052;DHT22;6592;47.484;9.726;2023-01-15T15:09:12;5.70;99.90
13052;DHT22;6592;47.484;9.726;2023-01-15T15:11:45;5.70;99.90
13052;DHT22;6592;47.484;9.726;2023-01-15T15:14:36;5.70;99.90
13052;DHT22;6592;47.484;9.726;2023-01-15T15:17:16;5.70;99.90
13052;DHT22;6592;47.484;9.726;2023-01-15T15:19:49;5.70;99.90
13052;DHT22;6592;47.484;9.726;2023-01-15T15:22:18;5.70;99.90
13052;DHT22;6592;47.484;9.726;2023-01-15T15:24:49;5.70;99.90
13052;DHT22;6592;47.484;9.726;2023-01-15T15:27:21;5.70;99.90
13052;DHT22;6592;47.484;9.726;2023-01-15T15:30:02;5.70;99.90
13052;DHT22;6592;47.484;9.726;2023-01-15T15:32:31;5.70;99.90
13052;DHT22;6592;47.484;9.726;2023-01-15T15:35:20;5.60;99.90
13052;DHT22;6592;47.484;9.726;2023-01-15T15:37:51;5.50;99.90
13052;DHT22;6592;47.484;9.726;2023-01-15T15:40:23;5.50;99.90
13052;DHT22;6592;47.484;9.726;2023-01-15T15:43:02;5.60;99.90
13052;DHT22;6592;47.484;9.726;2023-01-15T15:45:52;5.50;99.90
13052;DHT22;6592;47.484;9.726;2023-01-15T15:48:38;5.50;99.90
13052;DHT22;6592;47.484;9.726;2023-01-15T15:51:31;5.50;99.90
13052;DHT22;6592;47.484;9.726;2023-01-15T15:54:14;5.40;99.90
13052;DHT22;6592;47.484;9.726;2023-01-15T15:56:47;5.40;99.90
13052;DHT22;6592;47.484;9.726;2023-01-15T15:59:29;5.40;99.90
13052;DHT22;6592;47.484;9.726;2023-01-15T16:02:07;5.40;99.90
13052;DHT22;6592;47.484;9.726;2023-01-15T16:04:44;5.40;99.90
13052;DHT22;6592;47.484;9.726;2023-01-15T16:07:14;5.40;99.90
13052;DHT22;6592;47.484;9.726;2023-01-15T16:09:48;5.40;99.90
13052;DHT22;6592;47.484;9.726;2023-01-15T16:12:18;5.40;99.90
13052;DHT22;6592;47.484;9.726;2023-01-15T16:14:47;5.40;99.90
13052;DHT22;6592;47.484;9.726;2023-01-15T16:17:17;5.40;99.90
13052;DHT22;6592;47.484;9.726;2023-01-15T16:19:46;5.40;99.90
13052;DHT22;6592;47.484;9.726;2023-01-15T16:22:16;5.40;99.90
13052;DHT22;6592;47.484;9.726;2023-01-15T16:24:56;5.40;99.90
13052;DHT22;6592;47.484;9.726;2023-01-15T16:27:29;5.40;99.90
13052;DHT22;6592;47.484;9.726;2023-01-15T16:29:59;5.40;99.90
13052;DHT22;6592;47.484;9.726;2023-01-15T16:32:31;5.40;99.90
13052;DHT22;6592;47.484;9.726;2023-01-15T16:35:05;5.30;99.90
13052;DHT22;6592;47.484;9.726;2023-01-15T16:37:35;5.30;99.90
13052;DHT22;6592;47.484;9.726;2023-01-15T16:40:04;5.30;99.90